createdAt,value
2019-04-03T00:04:00.115Z,7.80
2019-04-03T00:09:24.502Z,5.87
2019-04-03T00:14:48.943Z,4.80
2019-04-03T00:20:13.639Z,6.33
2019-04-03T00:25:38.244Z,11.53
2019-04-03T00:31:03.199Z,9.17
2019-04-03T00:36:27.967Z,8.97
2019-04-03T00:41:52.944Z,13.13
2019-04-03T00:47:17.679Z,9.87
2019-04-03T00:52:42.089Z,9.17
2019-04-03T00:58:35.915Z,12.20
2019-04-03T01:04:00.825Z,10.70
2019-04-03T01:09:25.443Z,11.50
2019-04-03T01:14:49.569Z,12.93
2019-04-03T01:20:14.420Z,12.67
2019-04-03T01:25:39.635Z,13.47
2019-04-03T01:31:04.771Z,13.73
2019-04-03T01:36:29.364Z,17.33
2019-04-03T01:41:53.695Z,18.50
2019-04-03T01:47:18.528Z,20.90
2019-04-03T01:52:43.027Z,19.10
2019-04-03T01:58:07.549Z,13.97
2019-04-03T02:03:31.675Z,15.70
2019-04-03T02:08:56.156Z,15.57
2019-04-03T02:14:21.822Z,19.07
2019-04-03T02:19:46.927Z,17.80
2019-04-03T02:25:11.116Z,15.90
2019-04-03T02:30:36.133Z,19.03
2019-04-03T02:36:00.340Z,19.30
2019-04-03T02:41:25.150Z,22.00
2019-04-03T02:46:50.015Z,16.17
2019-04-03T02:52:14.934Z,21.50
2019-04-03T02:57:39.929Z,18.77
2019-04-03T03:03:04.460Z,18.77
2019-04-03T03:08:29.337Z,18.37
2019-04-03T03:13:54.456Z,18.93
2019-04-03T03:19:19.631Z,20.63
2019-04-03T03:24:45.308Z,18.47
2019-04-03T03:30:30.513Z,19.87
2019-04-03T03:35:41.585Z,21.63
2019-04-03T03:41:03.808Z,21.07
2019-04-03T03:46:29.457Z,22.87
2019-04-03T03:51:54.204Z,16.97
2019-04-03T03:57:19.639Z,22.60
2019-04-03T04:02:45.109Z,25.37
2019-04-03T04:08:11.509Z,22.30
2019-04-03T04:13:36.883Z,18.17
2019-04-03T04:19:02.460Z,19.30
2019-04-03T04:24:28.299Z,16.23
2019-04-03T04:29:54.443Z,18.67
2019-04-03T04:35:20.692Z,21.43
2019-04-03T04:41:03.495Z,20.33
2019-04-03T04:46:28.066Z,19.23
2019-04-03T04:51:56.574Z,24.00
2019-04-03T04:57:19.588Z,22.67
2019-04-03T05:02:43.937Z,21.30
2019-04-03T05:08:08.176Z,20.30
2019-04-03T05:13:32.551Z,17.47
2019-04-03T05:19:08.988Z,20.83
2019-04-03T05:24:23.352Z,22.10
2019-04-03T05:29:48.049Z,19.27
2019-04-03T05:35:14.590Z,22.50
2019-04-03T05:40:41.896Z,24.50
2019-04-03T05:46:06.587Z,23.63
2019-04-03T05:51:31.823Z,25.90
2019-04-03T05:57:05.204Z,25.13
2019-04-03T06:02:29.455Z,37.80
2019-04-03T06:07:54.433Z,38.30
2019-04-03T06:13:18.864Z,44.10
2019-04-03T06:18:47.659Z,46.28
2019-04-03T06:24:12.911Z,35.17
2019-04-03T06:29:38.150Z,38.70
2019-04-03T06:35:03.106Z,35.33
2019-04-03T06:40:27.887Z,37.40
2019-04-03T06:45:52.693Z,38.80
2019-04-03T06:51:17.861Z,43.93
2019-04-03T06:56:42.452Z,43.13
2019-04-03T07:02:07.112Z,42.33
2019-04-03T07:07:35.037Z,37.37
2019-04-03T07:12:57.927Z,37.13
2019-04-03T07:18:22.352Z,38.30
2019-04-03T07:23:46.867Z,39.93
2019-04-03T07:29:12.020Z,37.97
2019-04-03T07:34:37.525Z,39.43
2019-04-03T07:40:02.497Z,36.50
2019-04-03T07:45:26.630Z,46.37
2019-04-03T07:50:51.803Z,40.17
2019-04-03T07:56:16.605Z,43.03
2019-04-03T08:01:41.897Z,41.10
2019-04-03T08:07:06.448Z,40.40
2019-04-03T08:12:30.758Z,36.97
2019-04-03T08:17:57.097Z,44.73
2019-04-03T08:23:21.408Z,39.90
2019-04-03T08:28:46.030Z,37.63
2019-04-03T08:34:16.642Z,37.83
2019-04-03T08:39:36.599Z,42.53
2019-04-03T08:45:01.069Z,32.53
2019-04-03T08:50:26.789Z,36.20
2019-04-03T08:55:51.927Z,32.23
2019-04-03T09:01:16.534Z,33.90
2019-04-03T09:06:40.858Z,34.27
2019-04-03T09:12:06.870Z,37.17
2019-04-03T09:17:33.552Z,34.87
2019-04-03T09:22:57.015Z,38.27
2019-04-03T09:28:21.790Z,36.30
2019-04-03T09:33:47.270Z,33.10
2019-04-03T09:39:13.986Z,33.00
2019-04-03T09:44:39.674Z,23.03
2019-04-03T09:50:05.714Z,23.53
2019-04-03T09:55:35.769Z,22.33
2019-04-03T10:00:56.681Z,34.07
2019-04-03T10:06:21.206Z,26.30
2019-04-03T10:11:45.872Z,28.27
2019-04-03T10:17:10.544Z,24.07
2019-04-03T10:22:35.246Z,23.83
2019-04-03T10:27:59.005Z,18.33
2019-04-03T10:33:23.286Z,14.10
2019-04-03T10:38:49.107Z,27.13
2019-04-03T10:44:12.761Z,20.97
2019-04-03T10:49:38.148Z,17.80
2019-04-03T10:55:02.786Z,22.73
2019-04-03T11:00:28.833Z,19.67
2019-04-03T11:05:53.471Z,20.53
2019-04-03T11:11:18.422Z,13.97
2019-04-03T11:16:45.930Z,19.10
2019-04-03T11:22:08.962Z,15.10
2019-04-03T11:27:42.535Z,19.23
2019-04-03T11:32:59.056Z,17.77
2019-04-03T11:38:27.908Z,16.47
2019-04-03T11:43:49.305Z,19.80
2019-04-03T11:49:14.033Z,12.43
2019-04-03T11:54:39.578Z,8.53
2019-04-03T12:00:07.502Z,11.87
2019-04-03T12:05:32.066Z,10.67
2019-04-03T12:10:56.593Z,11.23
2019-04-03T12:16:23.984Z,8.50
2019-04-03T12:21:48.291Z,12.73
2019-04-03T12:27:14.112Z,7.63
2019-04-03T12:32:43.595Z,10.10
2019-04-03T12:38:04.665Z,10.57
2019-04-03T12:43:29.687Z,7.43
2019-04-03T12:48:54.302Z,10.00
2019-04-03T12:54:20.273Z,7.53
2019-04-03T12:59:46.714Z,7.17
2019-04-03T13:05:31.230Z,9.07
2019-04-03T13:10:55.283Z,11.80
2019-04-03T13:16:22.110Z,7.90
2019-04-03T13:21:46.449Z,8.73
2019-04-03T13:27:10.399Z,8.80
2019-04-03T13:32:34.980Z,7.50
2019-04-03T13:37:59.487Z,9.93
2019-04-03T13:43:24.019Z,9.80
2019-04-03T13:48:48.939Z,8.57
2019-04-03T13:54:13.686Z,10.40
2019-04-03T13:59:38.231Z,6.60
2019-04-03T14:05:02.267Z,8.53
2019-04-03T14:10:27.808Z,6.20
2019-04-03T14:15:54.750Z,7.00
2019-04-03T14:21:18.819Z,5.53
2019-04-03T14:26:45.179Z,5.53
2019-04-03T14:32:09.316Z,8.10
2019-04-03T14:37:34.083Z,5.43
2019-04-03T14:42:59.623Z,4.37
2019-04-03T14:48:26.308Z,7.30
2019-04-03T14:53:52.701Z,6.47
2019-04-03T14:59:16.994Z,4.77
2019-04-03T15:04:41.017Z,4.10
2019-04-03T15:10:07.400Z,5.77
2019-04-03T15:15:32.212Z,5.33
2019-04-03T15:20:57.173Z,5.27
2019-04-03T15:26:22.347Z,6.90
2019-04-03T15:31:48.107Z,12.10
2019-04-03T15:37:14.175Z,11.60
2019-04-03T15:42:40.564Z,7.23
2019-04-03T15:48:04.939Z,8.80
2019-04-03T15:53:29.412Z,11.63
2019-04-03T15:58:55.451Z,6.87
2019-04-03T16:04:20.078Z,7.73
2019-04-03T16:09:49.641Z,8.83
2019-04-03T16:15:13.956Z,8.67
2019-04-03T16:20:39.154Z,12.37
2019-04-03T16:26:03.697Z,8.20
2019-04-03T16:31:28.411Z,10.97
2019-04-03T16:36:53.123Z,9.00
2019-04-03T16:42:17.871Z,7.03
2019-04-03T16:47:45.005Z,10.30
2019-04-03T16:53:09.112Z,12.03
2019-04-03T16:58:33.506Z,9.80
2019-04-03T17:03:58.642Z,5.47
2019-04-03T17:09:23.794Z,5.47
2019-04-03T17:14:48.848Z,7.83
2019-04-03T17:20:13.825Z,5.60
2019-04-03T17:25:19.615Z,6.00
2019-04-03T17:30:25.258Z,6.37
2019-04-03T17:35:31.066Z,6.67
2019-04-03T17:40:37.194Z,6.07
2019-04-03T17:45:42.936Z,7.30
2019-04-03T17:50:48.637Z,9.60
2019-04-03T17:55:54.261Z,8.47
2019-04-03T18:00:59.956Z,10.33
2019-04-03T18:06:05.748Z,5.80
2019-04-03T18:11:13.078Z,6.07
2019-04-03T18:16:18.513Z,10.63
2019-04-03T18:21:24.055Z,5.97
2019-04-03T18:26:30.619Z,6.97
2019-04-03T18:31:36.973Z,6.03
2019-04-03T18:36:42.658Z,6.00
2019-04-03T18:41:48.376Z,10.20
2019-04-03T18:46:54.023Z,7.97
2019-04-03T18:51:59.720Z,10.83
2019-04-03T18:57:05.458Z,7.27
2019-04-03T19:02:11.546Z,7.37
2019-04-03T19:07:20.063Z,9.33
2019-04-03T19:12:34.945Z,7.63
2019-04-03T19:17:31.811Z,11.97
2019-04-03T19:22:37.530Z,10.63
2019-04-03T19:27:43.243Z,9.00
2019-04-03T19:32:49.177Z,8.23
2019-04-03T19:37:54.715Z,10.00
2019-04-03T19:43:00.264Z,9.53
2019-04-03T19:48:06.108Z,10.07
2019-04-03T19:53:13.347Z,12.63
2019-04-03T19:58:19.005Z,8.13
2019-04-03T20:03:24.508Z,10.57
2019-04-03T20:08:30.615Z,14.13
2019-04-03T20:13:39.549Z,8.13
2019-04-03T20:18:43.600Z,15.50
2019-04-03T20:23:49.197Z,10.53
2019-04-03T20:28:56.786Z,12.83
2019-04-03T20:34:02.132Z,12.50
2019-04-03T20:39:09.738Z,15.00
2019-04-03T20:44:17.425Z,16.07
2019-04-03T20:49:22.652Z,11.83
2019-04-03T20:54:28.080Z,12.80
2019-04-03T20:59:33.901Z,15.30
2019-04-03T21:04:39.692Z,16.60
2019-04-03T21:09:45.448Z,17.57
2019-04-03T21:14:50.846Z,16.60
2019-04-03T21:19:56.399Z,13.60
2019-04-03T21:25:04.880Z,14.95
2019-04-03T21:30:09.574Z,14.07
2019-04-03T21:35:15.475Z,16.47
2019-04-03T21:40:21.975Z,18.80
2019-04-03T21:45:27.718Z,13.80
2019-04-03T21:50:33.494Z,18.23
2019-04-03T21:56:09.649Z,18.00
2019-04-03T22:01:25.195Z,18.30
2019-04-03T22:06:30.967Z,24.55
2019-04-03T22:11:36.545Z,18.60
2019-04-03T22:16:42.127Z,16.30
2019-04-03T22:21:47.698Z,16.70
2019-04-03T22:26:53.365Z,15.60
2019-04-03T22:31:59.006Z,11.53
2019-04-03T22:37:04.721Z,15.90
2019-04-03T22:42:10.158Z,14.00
2019-04-03T22:47:15.980Z,16.87
2019-04-03T22:52:21.406Z,19.60
2019-04-03T22:57:28.573Z,12.37
2019-04-03T23:02:34.166Z,17.20
2019-04-03T23:07:39.699Z,13.13
2019-04-03T23:12:45.176Z,13.90
2019-04-03T23:17:50.628Z,13.70
2019-04-03T23:22:56.539Z,12.50
2019-04-03T23:28:03.134Z,15.10
2019-04-03T23:33:09.119Z,15.83
2019-04-03T23:38:14.527Z,11.00
2019-04-03T23:43:19.962Z,10.30
2019-04-03T23:48:25.601Z,14.33
2019-04-03T23:53:32.585Z,13.27
2019-04-03T23:58:39.904Z,15.23
